Flight Track Log - Related Links

Times and Time Zones

All times are in EST time to prevent confusion due to time zone crossing. See the UAL785 flight status page for this flight to view local times or setup timezone preferences in your user account.

Time Position Orientation Groundspeed Altitude Reporting Facility
EST Latitude Longitude Course Direction KTS MPH feet Rate Location/Type
Wed 10:18:49 AM 40.7833 -73.9837 14° North  Level FlightAware Approximate
Wed 10:20:16 AM 40.8833 -73.9500 285° West 246 283 4,700  Level New York TRACON
Wed 10:21:16 AM 40.9000 -74.0333 285° West 257 296 7,600 2,950 Climbing New York TRACON
Wed 10:22:16 AM 40.9167 -74.1167 270° West 254 292 10,600 2,050 Climbing New York TRACON
Wed 10:23:16 AM 40.9167 -74.2333 270° West 313 360 11,700 1,800 Climbing New York TRACON
Wed 10:24:16 AM 40.9167 -74.3500 270° West 338 389 14,200 2,208 Climbing New York TRACON
Wed 10:25:40 AM 40.9167 -74.5219 271° West 365 420 17,000 1,159 Climbing New York Center
Wed 10:26:41 AM 40.9189 -74.6486 269° West 377 434 17,000  Level New York Center
Wed 10:27:41 AM 40.9175 -74.8078 271° West 394 453 17,000 958 Level New York Center
Wed 10:28:40 AM 40.9189 -74.9478 270° West 399 459 18,900 1,736 Climbing New York Center
Wed 10:29:42 AM 40.9186 -75.0714 265° West 392 451 20,500 1,561 Climbing New York Center
Wed 10:30:43 AM 40.9092 -75.2189 253° West 392 451 22,100 1,815 Climbing New York Center
Wed 10:31:41 AM 40.8739 -75.3758 254° West 404 465 24,100 1,627 Climbing New York Center
Wed 10:32:41 AM 40.8458 -75.5056 252° West 415 478 25,300 1,289 Climbing New York Center
Wed 10:33:42 AM 40.8058 -75.6700 252° West 420 483 26,700 1,230 Climbing New York Center
Wed 10:34:43 AM 40.7683 -75.8208 253° West 431 496 27,800 1,068 Climbing New York Center
Wed 10:35:40 AM 40.7375 -75.9556 252° West 431 496 28,800 1,220 Climbing New York Center
Wed 10:36:41 AM 40.6964 -76.1250 258° West 431 496 30,200 1,339 Climbing New York Center
Wed 10:37:41 AM 40.6736 -76.2600 279° West 431 496 31,500 900 Climbing New York Center
Wed 10:38:41 AM 40.6947 -76.4314 280° West 424 488 32,000 248 Climbing New York Center
Wed 10:39:42 AM 40.7164 -76.5867 283° West 434 499 32,000  Level New York Center
Wed 10:40:40 AM 40.7422 -76.7394 280° West 434 499 32,000  Level New York Center
Wed 10:41:40 AM 40.7633 -76.8975 281° West 433 498 32,000  Level New York Center
Wed 10:42:41 AM 40.7831 -77.0364 281° West 433 498 32,000  Level New York Center
Wed 10:43:41 AM 40.8058 -77.1947 280° West 433 498 32,000  Level New York Center
Wed 10:44:42 AM 40.8264 -77.3503 281° West 433 498 32,000  Level New York Center
Wed 10:45:40 AM 40.8492 -77.5006 280° West 433 498 32,000  Level New York Center
Wed 10:47:54 AM 40.8956 -77.8500 280° West 424 488 32,000  Level Cleveland Center
Wed 10:48:54 AM 40.9158 -78.0083 280° West 424 488 32,000  Level Cleveland Center
Wed 10:49:54 AM 40.9358 -78.1642 278° West 424 488 32,000  Level Cleveland Center
Wed 10:50:54 AM 40.9517 -78.3178 279° West 424 488 32,000  Level Cleveland Center
Wed 10:51:54 AM 40.9714 -78.4767 277° West 431 496 32,000  Level Cleveland Center
Wed 10:52:54 AM 40.9867 -78.6328 276° West 431 496 32,000  Level Cleveland Center
Wed 10:53:54 AM 40.9997 -78.7947 278° West 436 502 32,000  Level Cleveland Center
Wed 10:54:54 AM 41.0164 -78.9483 278° West 436 502 32,000  Level Cleveland Center
Wed 10:55:54 AM 41.0333 -79.1050 277° West 436 502 32,000  Level Cleveland Center
Wed 10:56:54 AM 41.0478 -79.2644 277° West 436 502 32,000  Level Cleveland Center
Wed 10:57:54 AM 41.0619 -79.4236 277° West 441 507 32,000  Level Cleveland Center
Wed 10:58:54 AM 41.0758 -79.5806 277° West 441 507 32,000  Level Cleveland Center
Wed 10:59:54 AM 41.0897 -79.7372 277° West 441 507 32,000  Level Cleveland Center
Wed 11:00:54 AM 41.1033 -79.8914 278° West 436 502 32,000  Level Cleveland Center
Wed 11:01:54 AM 41.1186 -80.0456 276° West 436 502 32,000  Level Cleveland Center
Wed 11:02:54 AM 41.1317 -80.2000 276° West 431 496 32,000  Level Cleveland Center
Wed 11:03:54 AM 41.1447 -80.3569 276° West 431 496 32,000  Level Cleveland Center
Wed 11:04:54 AM 41.1575 -80.5086 276° West 425 489 32,000  Level Cleveland Center
Wed 11:05:54 AM 41.1700 -80.6603 275° West 425 489 32,000  Level Cleveland Center
Wed 11:06:54 AM 41.1800 -80.8147 276° West 425 489 32,000  Level Cleveland Center
Wed 11:07:54 AM 41.1922 -80.9694 276° West 425 489 32,000  Level Cleveland Center
Wed 11:08:54 AM 41.2061 -81.1350 276° West 425 489 32,000  Level Cleveland Center
Wed 11:09:54 AM 41.2178 -81.2925 277° West 425 489 32,000  Level Cleveland Center
Wed 11:10:54 AM 41.2294 -81.4281 277° West 420 483 32,000  Level Cleveland Center
Wed 11:11:54 AM 41.2428 -81.5828 275° West 426 490 32,000  Level Cleveland Center
Wed 11:12:55 AM 41.2536 -81.7375 275° West 426 490 32,000  Level Cleveland Center
Wed 11:13:54 AM 41.2644 -81.8897 276° West 426 490 32,000  Level Cleveland Center
Wed 11:14:54 AM 41.2772 -82.0447 274° West 426 490 32,000  Level Cleveland Center
Wed 11:15:54 AM 41.2856 -82.2053 275° West 432 497 32,000  Level Cleveland Center
Wed 11:16:54 AM 41.2956 -82.3739 275° West 432 497 32,000  Level Cleveland Center
Wed 11:17:54 AM 41.3056 -82.5319 275° West 432 497 32,000  Level Cleveland Center
Wed 11:18:54 AM 41.3153 -82.6869 275° West 423 487 32,000  Level Cleveland Center
Wed 11:19:54 AM 41.3247 -82.8422 275° West 430 495 32,000  Level Cleveland Center
Wed 11:20:54 AM 41.3342 -82.9972 275° West 425 489 32,000  Level Cleveland Center
Wed 11:21:54 AM 41.3433 -83.1497 275° West 425 489 32,000  Level Cleveland Center
Wed 11:22:54 AM 41.3528 -83.2858 274° West 425 489 32,000  Level Cleveland Center
Wed 11:23:54 AM 41.3614 -83.4383 274° West 425 489 32,000  Level Cleveland Center
Wed 11:24:54 AM 41.3700 -83.5908 275° West 425 489 32,000  Level Cleveland Center
Wed 11:25:54 AM 41.3806 -83.7464 274° West 425 489 32,000  Level Cleveland Center
Wed 11:26:54 AM 41.3886 -83.9019 274° West 425 489 32,000  Level Cleveland Center
Wed 11:27:54 AM 41.3981 -84.0683 274° West 420 483 32,000  Level Cleveland Center
Wed 11:30:15 AM 41.4142 -84.4122 274° West 404 465 32,000  Level Chicago Center
Wed 11:31:14 AM 41.4228 -84.5614 273° West 404 465 32,000  Level Chicago Center
Wed 11:32:15 AM 41.4289 -84.7106 274° West 399 459 32,000  Level Chicago Center
Wed 11:33:15 AM 41.4361 -84.8431 273° West 399 459 32,000  Level Chicago Center
Wed 11:34:15 AM 41.4419 -84.9922 273° West 399 459 32,000  Level Chicago Center
Wed 11:35:13 AM 41.4475 -85.1358 273° West 399 459 32,000  Level Chicago Center
Wed 11:36:13 AM 41.4528 -85.2881 273° West 399 459 32,000  Level Chicago Center
Wed 11:37:14 AM 41.4586 -85.4539 274° West 405 466 32,000  Level Chicago Center
Wed 11:38:13 AM 41.4658 -85.6033 273° West 405 466 32,000  Level Chicago Center
Wed 11:39:13 AM 41.4725 -85.7525 274° West 400 460 32,000  Level Chicago Center
Wed 11:40:13 AM 41.4792 -85.8992 272° West 400 460 32,000  Level Chicago Center
Wed 11:41:15 AM 41.4836 -86.0486 273° West 400 460 32,000  Level Chicago Center
Wed 11:42:16 AM 41.4900 -86.2008 272° West 411 473 32,000  Level Chicago Center
Wed 11:43:13 AM 41.4936 -86.3336 272° West 411 473 32,000  Level Chicago Center
Wed 11:44:14 AM 41.4975 -86.4833 274° West 404 465 32,000  Level Chicago Center
Wed 11:45:13 AM 41.5053 -86.6353 272° West 404 465 32,000  Level Chicago Center
Wed 11:46:13 AM 41.5086 -86.7822 270° West 404 465 32,000  Level Chicago Center
Wed 11:47:16 AM 41.5078 -86.9319 274° West 404 465 32,000  Level Chicago Center
Wed 11:48:13 AM 41.5153 -87.0953 272° West 404 465 32,000  Level Chicago Center
Wed 11:49:13 AM 41.5183 -87.2478 271° West 399 459 32,000  Level Chicago Center
Wed 11:50:13 AM 41.5208 -87.3947 272° West 406 467 32,000  Level Chicago Center
Wed 11:51:15 AM 41.5253 -87.5417 270° West 400 460 32,000  Level Chicago Center
Wed 11:52:15 AM 41.5256 -87.6886 272° West 400 460 32,000  Level Chicago Center
Wed 11:53:13 AM 41.5294 -87.8300 273° West 395 455 32,000  Level Chicago Center
Wed 11:54:14 AM 41.5356 -87.9794 270° West 400 460 32,000  Level Chicago Center
Wed 11:55:13 AM 41.5353 -88.1239 273° West 394 453 32,000  Level Chicago Center
Wed 11:56:13 AM 41.5408 -88.2653 272° West 394 453 32,000  Level Chicago Center
Wed 11:57:14 AM 41.5442 -88.4150 271° West 400 460 32,000  Level Chicago Center
Wed 11:58:15 AM 41.5453 -88.5508 269° West 410 472 32,000  Level Chicago Center
Wed 11:59:16 AM 41.5439 -88.6925 272° West 403 464 32,000  Level Chicago Center
Wed 12:00:15 PM 41.5467 -88.8339 271° West 398 458 32,000  Level Chicago Center
Wed 12:01:16 PM 41.5494 -88.9864 270° West 387 445 32,000  Level Chicago Center
Wed 12:02:13 PM 41.5497 -89.1142 270° West 380 437 32,000  Level Chicago Center
Wed 12:03:14 PM 41.5500 -89.2472 271° West 374 430 32,000  Level Chicago Center
Wed 12:04:14 PM 41.5522 -89.3889 271° West 374 430 32,000  Level Chicago Center
Wed 12:05:15 PM 41.5542 -89.5275 270° West 379 436 32,000  Level Chicago Center
Wed 12:06:13 PM 41.5539 -89.6689 271° West 379 436 32,000  Level Chicago Center
Wed 12:07:13 PM 41.5556 -89.8050 270° West 379 436 32,000  Level Chicago Center
Wed 12:08:16 PM 41.5547 -89.9436 270° West 379 436 32,000  Level Chicago Center
Wed 12:09:14 PM 41.5539 -90.0825 271° West 379 436 32,000  Level Chicago Center
Wed 12:10:14 PM 41.5550 -90.2239 269° West 384 442 32,000  Level Chicago Center
Wed 12:11:13 PM 41.5539 -90.3656 269° West 384 442 32,000  Level Chicago Center
Wed 12:12:13 PM 41.5525 -90.5042 270° West 379 436 32,000  Level Chicago Center
Wed 12:13:14 PM 41.5531 -90.6539 268° West 379 436 32,000  Level Chicago Center
Wed 12:14:13 PM 41.5494 -90.7928 270° West 379 436 32,000  Level Chicago Center
Wed 12:15:15 PM 41.5497 -90.9314 269° West 379 436 32,000  Level Chicago Center
Wed 12:16:13 PM 41.5478 -91.0589 270° West 384 442 32,000  Level Chicago Center
Wed 12:17:13 PM 41.5478 -91.2006 269° West 384 442 32,000  Level Chicago Center
Wed 12:18:14 PM 41.5453 -91.3392 269° West 379 436 32,000  Level Chicago Center
Wed 12:19:14 PM 41.5431 -91.4722 270° West 379 436 32,000  Level Chicago Center
Wed 12:20:15 PM 41.5422 -91.6136 267° West 379 436 32,000  Level Chicago Center
Wed 12:21:16 PM 41.5375 -91.7550 270° West 384 442 32,000  Level Chicago Center
Wed 12:22:13 PM 41.5367 -91.8881 268° West 379 436 32,000  Level Chicago Center
Wed 12:23:14 PM 41.5333 -92.0267 268° West 379 436 32,000  Level Chicago Center
Wed 12:24:14 PM 41.5303 -92.1625 269° West 379 436 32,000  Level Chicago Center
Wed 12:25:13 PM 41.5289 -92.3011 267° West 379 436 32,000  Level Chicago Center
Wed 12:26:14 PM 41.5231 -92.4342 268° West 373 429 32,000  Level Chicago Center
Wed 12:27:14 PM 41.5194 -92.5672 269° West 368 423 32,000  Level Chicago Center
Wed 12:28:15 PM 41.5178 -92.7003 270° West 363 418 32,000  Level Chicago Center
Wed 12:29:13 PM 41.5178 -92.8417 268° West 363 418 32,000  Level Chicago Center
Wed 12:31:11 PM 41.5117 -93.1039 268° West 363 418 32,000  Level Minneapolis Center
Wed 12:32:11 PM 41.5078 -93.2367 268° West 363 418 32,000 900 Level Minneapolis Center
Wed 12:33:11 PM 41.5039 -93.3669 267° West 363 418 33,800 1,000 Climbing Minneapolis Center
Wed 12:34:11 PM 41.4997 -93.4914 269° West 357 411 34,000 100 Climbing Minneapolis Center
Wed 12:35:11 PM 41.4975 -93.6186 266° West 352 405 34,000  Level Minneapolis Center
Wed 12:36:11 PM 41.4908 -93.7431 267° West 345 397 34,000  Level Minneapolis Center
Wed 12:37:11 PM 41.4864 -93.8758 268° West 350 403 34,000  Level Minneapolis Center
Wed 12:38:11 PM 41.4836 -94.0003 267° West 350 403 34,000  Level Minneapolis Center
Wed 12:39:10 PM 41.4786 -94.1414 265° West 345 397 34,000  Level Minneapolis Center
Wed 12:40:11 PM 41.4717 -94.2519 268° West 345 397 34,000  Level Minneapolis Center
Wed 12:41:11 PM 41.4686 -94.3764 268° West 345 397 34,000  Level Minneapolis Center
Wed 12:42:11 PM 41.4653 -94.5092 265° West 340 391 34,000  Level Minneapolis Center
Wed 12:43:11 PM 41.4578 -94.6306 268° West 340 391 34,000  Level Minneapolis Center
Wed 12:44:10 PM 41.4544 -94.7494 266° West 333 383 34,000  Level Minneapolis Center
Wed 12:45:10 PM 41.4486 -94.8711 266° West 328 377 34,000  Level Minneapolis Center
Wed 12:46:11 PM 41.4428 -94.9925 268° West 328 377 34,000  Level Minneapolis Center
Wed 12:47:11 PM 41.4389 -95.1169 266° West 328 377 34,000  Level Minneapolis Center
Wed 12:48:11 PM 41.4328 -95.2383 266° West 333 383 34,000  Level Minneapolis Center
Wed 12:49:11 PM 41.4267 -95.3653 267° West 333 383 34,000  Level Minneapolis Center
Wed 12:50:11 PM 41.4222 -95.4897 265° West 333 383 34,000  Level Minneapolis Center
Wed 12:51:11 PM 41.4136 -95.6108 272° West 333 383 34,000  Level Minneapolis Center
Wed 12:52:10 PM 41.4172 -95.7356 268° West 333 383 34,000  Level Minneapolis Center
Wed 12:53:11 PM 41.4147 -95.8569 262° West 333 383 34,000  Level Minneapolis Center
Wed 12:54:11 PM 41.4017 -95.9753 268° West 328 377 34,000  Level Minneapolis Center
Wed 12:55:11 PM 41.3989 -96.0939 263° West 328 377 34,000  Level Minneapolis Center
Wed 12:56:11 PM 41.3875 -96.2094 268° West 328 377 34,000  Level Minneapolis Center
Wed 12:57:11 PM 41.3844 -96.3311 262° West 328 377 34,000  Level Minneapolis Center
Wed 12:58:11 PM 41.3733 -96.4383 265° West 333 383 34,000  Level Minneapolis Center
Wed 12:59:11 PM 41.3658 -96.5567 265° West 327 376 34,000  Level Minneapolis Center
Wed 01:00:11 PM 41.3581 -96.6750 265° West 327 376 34,000  Level Minneapolis Center
Wed 01:01:11 PM 41.3506 -96.7906 265° West 327 376 34,000  Level Minneapolis Center
Wed 01:02:11 PM 41.3425 -96.9117 266° West 327 376 34,000  Level Minneapolis Center
Wed 01:03:11 PM 41.3367 -97.0272 266° West 327 376 34,000  Level Minneapolis Center
Wed 01:04:10 PM 41.3306 -97.1483 265° West 327 376 34,000  Level Minneapolis Center
Wed 01:05:10 PM 41.3225 -97.2667 265° West 327 376 34,000  Level Minneapolis Center
Wed 01:06:11 PM 41.3142 -97.3822 269° West 327 376 34,000  Level Minneapolis Center
Wed 01:07:11 PM 41.3117 -97.5089 264° West 327 376 34,000  Level Minneapolis Center
Wed 01:08:11 PM 41.3031 -97.6242 264° West 327 376 34,000  Level Minneapolis Center
Wed 01:09:11 PM 41.2942 -97.7450 264° West 327 376 34,000  Level Minneapolis Center
Wed 01:10:10 PM 41.2856 -97.8603 266° West 327 376 34,000  Level Minneapolis Center
Wed 01:11:10 PM 41.2786 -97.9786 264° West 327 376 34,000  Level Minneapolis Center
Wed 01:12:10 PM 41.2694 -98.0939 265° West 327 376 34,000  Level Minneapolis Center
Wed 01:13:10 PM 41.2622 -98.2119 264° West 327 376 34,000  Level Minneapolis Center
Wed 01:14:11 PM 41.2531 -98.3297 264° West 327 376 34,000  Level Minneapolis Center
Wed 01:16:34 PM 41.2303 -98.6150 259° West 336 387 34,000  Level Denver Center
Wed 01:17:34 PM 41.2131 -98.7303 256° West 336 387 34,000  Level Denver Center
Wed 01:18:34 PM 41.1917 -98.8461 258° West 336 387 34,000  Level Denver Center
Wed 01:19:34 PM 41.1722 -98.9644 256° West 331 381 34,000  Level Denver Center
Wed 01:20:34 PM 41.1519 -99.0717 256° West 331 381 34,000  Level Denver Center
Wed 01:21:34 PM 41.1289 -99.1983 257° West 326 375 34,000  Level Denver Center
Wed 01:22:34 PM 41.1089 -99.3164 256° West 326 375 34,000  Level Denver Center
Wed 01:23:34 PM 41.0869 -99.4347 257° West 326 375 34,000  Level Denver Center
Wed 01:24:34 PM 41.0653 -99.5583 257° West 340 391 34,000  Level Denver Center
Wed 01:25:34 PM 41.0433 -99.6792 257° West 345 397 34,000  Level Denver Center
Wed 01:26:34 PM 41.0214 -99.8053 256° West 345 397 34,000  Level Denver Center
Wed 01:27:34 PM 40.9992 -99.9258 256° West 345 397 34,000  Level Denver Center
Wed 01:28:34 PM 40.9783 -100.0381 256° West 345 397 34,000  Level Denver Center
Wed 01:29:34 PM 40.9525 -100.1728 256° West 345 397 34,000  Level Denver Center
Wed 01:30:34 PM 40.9297 -100.2931 257° West 345 397 34,000  Level Denver Center
Wed 01:31:34 PM 40.9072 -100.4192 255° West 345 397 34,000  Level Denver Center
Wed 01:32:34 PM 40.8858 -100.5281 255° West 339 390 34,000  Level Denver Center
Wed 01:33:34 PM 40.8608 -100.6542 256° West 351 404 34,000  Level Denver Center
Wed 01:34:34 PM 40.8361 -100.7881 255° West 351 404 34,000  Level Denver Center
Wed 01:35:34 PM 40.8108 -100.9083 256° West 339 390 34,000  Level Denver Center
Wed 01:36:34 PM 40.7875 -101.0336 255° West 351 404 34,000  Level Denver Center
Wed 01:37:34 PM 40.7622 -101.1592 254° West 351 404 34,000  Level Denver Center
Wed 01:38:34 PM 40.7381 -101.2736 256° West 357 411 34,000  Level Denver Center
Wed 01:39:34 PM 40.7128 -101.4097 256° West 363 418 34,000  Level Denver Center
Wed 01:40:34 PM 40.6872 -101.5406 255° West 363 418 34,000  Level Denver Center
Wed 01:41:34 PM 40.6614 -101.6658 254° West 363 418 34,000  Level Denver Center
Wed 01:42:34 PM 40.6367 -101.7769 255° West 363 418 34,000  Level Denver Center
Wed 01:43:34 PM 40.6086 -101.9131 256° West 363 418 34,000  Level Denver Center
Wed 01:44:34 PM 40.5844 -102.0406 256° West 363 418 34,000 -750 Level Denver Center
Wed 01:45:34 PM 40.5619 -102.1622 254° West 357 411 32,500 -1,700 Descending Denver Center
Wed 01:46:34 PM 40.5389 -102.2678 255° West 345 397 30,600 -2,000 Descending Denver Center
Wed 01:47:34 PM 40.5122 -102.3950 255° West 335 386 28,500 -2,150 Descending Denver Center
Wed 01:48:34 PM 40.4889 -102.5083 253° West 323 372 26,300 -2,050 Descending Denver Center
Wed 01:49:34 PM 40.4636 -102.6192 258° West 328 377 24,400 -1,900 Descending Denver Center
Wed 01:50:34 PM 40.4461 -102.7239 256° West 328 377 22,500 -2,050 Descending Denver Center
Wed 01:51:34 PM 40.4247 -102.8369 254° West 321 369 20,300 -1,750 Descending Denver Center
Wed 01:52:34 PM 40.4008 -102.9444 253° West 321 369 19,000 -650 Descending Denver Center
Wed 01:53:34 PM 40.3750 -103.0578 255° West 326 375 19,000  Level Denver Center
Wed 01:54:34 PM 40.3494 -103.1817 254° West 326 375 19,000  Level Denver Center
Wed 01:55:34 PM 40.3236 -103.2972 255° West 326 375 19,000  Level Denver Center
Wed 01:56:34 PM 40.2997 -103.4156 255° West 326 375 19,000  Level Denver Center
Wed 01:57:34 PM 40.2756 -103.5311 253° West 326 375 19,000  Level Denver Center
Wed 01:58:34 PM 40.2492 -103.6436 253° West 326 375 19,000  Level Denver Center
Wed 01:59:34 PM 40.2228 -103.7589 251° West 326 375 19,000 -250 Level Denver Center
Wed 02:00:34 PM 40.1958 -103.8606 239° Southwest 314 361 18,500 -1,100 Descending Denver Center
Wed 02:01:34 PM 40.1542 -103.9519 237° Southwest 296 341 16,800 -1,700 Descending Denver Center
Wed 02:02:34 PM 40.1122 -104.0378 237° Southwest 290 334 15,100 -1,600 Descending Denver Center
Wed 02:03:34 PM 40.0742 -104.1150 239° Southwest 285 328 13,600 -1,000 Descending Denver Center
Wed 02:04:34 PM 40.0361 -104.1978 238° Southwest 275 316 13,100 -250 Descending Denver Center
Wed 02:05:34 PM 39.9961 -104.2803 239° Southwest 280 322 13,100  Level Denver Center
Wed 02:06:34 PM 39.9561 -104.3656 240° Southwest 286 329 13,100 -66 Level Denver Center
Wed 02:07:05 PM 39.9333 -104.4167 232° Southwest 279 321 13,000 -923 Descending Denver TRACON
Wed 02:08:05 PM 39.8833 -104.5000 191° South 276 318 11,700 -1,000 Descending Denver TRACON
Wed 02:09:05 PM 39.8167 -104.5167 194° South 236 272 11,000 -350 Descending Denver TRACON
Wed 02:10:05 PM 39.7667 -104.5333 180° South 221 254 11,000 -950 Level Denver TRACON
Wed 02:11:05 PM 39.7000 -104.5333 180° South 210 242 9,100 -905 Descending Denver TRACON
Wed 02:12:11 PM 39.6333 -104.5333 194° South 231 266 9,100 -50 Level Denver TRACON
Wed 02:13:05 PM 39.5833 -104.5500 191° South 227 261 9,000  Descending Denver TRACON
Wed 02:14:05 PM 39.5167 -104.5667 285° West 228 262 9,100  Climbing Denver TRACON
Wed 02:15:05 PM 39.5333 -104.6500 360° North 236 272 9,000 -48 Descending Denver TRACON
Wed 02:16:11 PM 39.6000 -104.6500 360° North 231 266 9,000  Level Denver TRACON
Wed 02:17:05 PM 39.6667 -104.6500 360° North 229 264 9,000 -650 Level Denver TRACON
Wed 02:18:11 PM 39.7167 -104.6500 360° North 190 219 7,700 -1,182 Descending Denver TRACON

Login

Don't have an account? Register now (free) for customized features, flight alerts, and more!